createdAt,value
2022-08-25T00:00:20.523Z,96729.69
2022-08-25T00:02:55.233Z,96727.81
2022-08-25T00:05:29.170Z,96730.00
2022-08-25T00:07:59.290Z,96727.03
2022-08-25T00:10:27.598Z,96725.72
2022-08-25T00:12:55.947Z,96712.34
2022-08-25T00:15:24.269Z,96714.50
2022-08-25T00:17:52.578Z,96715.59
2022-08-25T00:20:21.134Z,96709.41
2022-08-25T00:22:49.855Z,96711.03
2022-08-25T00:25:20.392Z,96711.91
2022-08-25T00:27:48.571Z,96717.59
2022-08-25T00:30:17.339Z,96713.28
2022-08-25T00:32:48.919Z,96714.94
2022-08-25T00:35:24.641Z,96718.47
2022-08-25T00:37:52.724Z,96721.72
2022-08-25T00:40:23.488Z,96723.34
2022-08-25T00:42:51.703Z,96723.38
2022-08-25T00:45:20.440Z,96720.44
2022-08-25T00:47:48.767Z,96714.88
2022-08-25T00:50:18.282Z,96713.84
2022-08-25T00:52:51.939Z,96717.84
2022-08-25T00:55:26.010Z,96705.53
2022-08-25T00:58:01.087Z,96710.38
2022-08-25T01:00:34.146Z,96709.09
2022-08-25T01:03:02.576Z,96702.13
2022-08-25T01:05:31.665Z,96703.47
2022-08-25T01:08:06.654Z,96706.94
2022-08-25T01:10:41.288Z,96706.94
2022-08-25T01:13:16.726Z,96704.84
2022-08-25T01:15:46.356Z,96696.59
2022-08-25T01:18:15.773Z,96705.19
2022-08-25T01:20:44.197Z,96697.97
2022-08-25T01:23:13.691Z,96698.78
2022-08-25T01:25:52.522Z,96694.50
2022-08-25T01:28:22.050Z,96697.47
2022-08-25T01:30:50.491Z,96698.28
2022-08-25T01:33:18.617Z,96696.47
2022-08-25T01:35:47.408Z,96706.34
2022-08-25T01:38:17.717Z,96700.22
2022-08-25T01:40:45.947Z,96707.41
2022-08-25T01:43:23.196Z,96705.00
2022-08-25T01:45:51.336Z,96709.00
2022-08-25T01:48:20.506Z,96703.38
2022-08-25T01:50:48.545Z,96709.28
2022-08-25T01:53:27.871Z,96708.44
2022-08-25T01:56:02.762Z,96713.81
2022-08-25T01:58:35.066Z,96710.38
2022-08-25T02:01:08.093Z,96709.59
2022-08-25T02:03:42.127Z,96714.41
2022-08-25T02:06:13.813Z,96709.59
2022-08-25T02:08:43.733Z,96713.34
2022-08-25T02:11:13.715Z,96716.03
2022-08-25T02:13:43.473Z,96721.38
2022-08-25T02:16:20.611Z,96723.00
2022-08-25T02:18:49.081Z,96725.94
2022-08-25T02:21:17.503Z,96726.50
2022-08-25T02:23:46.968Z,96726.50
2022-08-25T02:26:16.796Z,96726.53
2022-08-25T02:28:47.325Z,96723.59
2022-08-25T02:31:16.511Z,96713.97
2022-08-25T02:33:44.911Z,96712.91
2022-08-25T02:36:13.625Z,96707.56
2022-08-25T02:38:41.770Z,96705.41
2022-08-25T02:41:14.188Z,96711.31
2022-08-25T02:43:44.035Z,96704.34
2022-08-25T02:46:13.816Z,96715.31
2022-08-25T02:48:42.546Z,96710.78
2022-08-25T02:51:12.324Z,96706.25
2022-08-25T02:53:42.856Z,96702.19
2022-08-25T02:56:14.845Z,96704.34
2022-08-25T02:58:44.034Z,96711.56
2022-08-25T03:01:12.505Z,96710.25
2022-08-25T03:03:43.507Z,96714.25
2022-08-25T03:06:13.513Z,96707.28
2022-08-25T03:08:42.575Z,96701.94
2022-08-25T03:11:12.894Z,96692.84
2022-08-25T03:13:41.153Z,96698.47
2022-08-25T03:16:11.405Z,96700.59
2022-08-25T03:18:43.146Z,96698.22
2022-08-25T03:21:13.387Z,96700.88
2022-08-25T03:23:44.591Z,96695.22
2022-08-25T03:26:31.717Z,96692.56
2022-08-25T03:29:05.019Z,96701.66
2022-08-25T03:31:34.194Z,96704.31
2022-08-25T03:34:02.885Z,96700.56
2022-08-25T03:36:31.127Z,96697.09
2022-08-25T03:39:00.558Z,96689.34
2022-08-25T03:41:32.625Z,96684.53
2022-08-25T03:44:02.160Z,96689.63
2022-08-25T03:46:33.492Z,96677.31
2022-08-25T03:49:03.932Z,96683.75
2022-08-25T03:51:35.990Z,96680.25
2022-08-25T03:54:05.414Z,96676.50
2022-08-25T03:56:35.546Z,96681.34
2022-08-25T03:59:06.058Z,96679.44
2022-08-25T04:01:35.353Z,96676.81
2022-08-25T04:04:03.842Z,96673.84
2022-08-25T04:06:32.097Z,96666.34
2022-08-25T04:09:00.228Z,96674.88
2022-08-25T04:11:29.265Z,96671.41
2022-08-25T04:14:02.307Z,96682.63
2022-08-25T04:16:35.090Z,96686.66
2022-08-25T04:19:07.871Z,96688.75
2022-08-25T04:21:36.797Z,96684.22
2022-08-25T04:24:06.391Z,96682.59
2022-08-25T04:26:38.077Z,96684.47
2022-08-25T04:29:10.226Z,96695.09
2022-08-25T04:31:41.785Z,96687.59
2022-08-25T04:34:28.568Z,96688.41
2022-08-25T04:36:58.465Z,96687.31
2022-08-25T04:39:26.549Z,96686.00
2022-08-25T04:41:54.583Z,96688.66
2022-08-25T04:44:24.010Z,96682.78
2022-08-25T04:46:52.084Z,96692.94
2022-08-25T04:49:20.286Z,96689.19
2022-08-25T04:51:48.341Z,96690.00
2022-08-25T04:54:21.569Z,96693.75
2022-08-25T04:56:50.679Z,96703.38
2022-08-25T04:59:29.943Z,96703.16
2022-08-25T05:02:02.388Z,96704.97
2022-08-25T05:04:32.523Z,96700.44
2022-08-25T05:07:01.330Z,96700.94
2022-08-25T05:09:32.417Z,96691.59
2022-08-25T05:12:02.374Z,96680.66
2022-08-25T05:14:33.382Z,96672.91
2022-08-25T05:17:02.045Z,96681.22
2022-08-25T05:19:30.239Z,96674.53
2022-08-25T05:21:58.394Z,96676.13
2022-08-25T05:24:26.956Z,96685.50
2022-08-25T05:26:55.275Z,96691.91
2022-08-25T05:29:23.546Z,96682.31
2022-08-25T05:31:54.009Z,96681.56
2022-08-25T05:34:22.384Z,96671.41
2022-08-25T05:36:51.492Z,96674.88
2022-08-25T05:39:19.723Z,96672.72
2022-08-25T05:41:47.823Z,96665.00
2022-08-25T05:44:20.928Z,96672.25
2022-08-25T05:46:52.523Z,96668.50
2022-08-25T05:49:20.836Z,96662.63
2022-08-25T05:51:48.987Z,96669.31
2022-08-25T05:54:17.287Z,96671.16
2022-08-25T05:56:46.325Z,96676.53
2022-08-25T05:59:14.463Z,96682.44
2022-08-25T06:02:00.313Z,96677.34
2022-08-25T06:04:29.787Z,96680.56
2022-08-25T06:06:57.887Z,96678.69
2022-08-25T06:09:26.519Z,96674.94
2022-08-25T06:11:55.430Z,96675.47
2022-08-25T06:14:24.893Z,96673.88
2022-08-25T06:16:53.465Z,96681.38
2022-08-25T06:19:23.354Z,96679.50
2022-08-25T06:21:55.765Z,96672.78
2022-08-25T06:24:24.540Z,96667.44
2022-08-25T06:26:52.727Z,96674.63
2022-08-25T06:29:21.304Z,96675.44
2022-08-25T06:31:50.277Z,96669.78
2022-08-25T06:34:19.521Z,96669.75
2022-08-25T06:36:53.537Z,96664.66
2022-08-25T06:39:21.881Z,96663.31
2022-08-25T06:41:53.706Z,96667.00
2022-08-25T06:44:22.279Z,96667.22
2022-08-25T06:46:51.497Z,96666.13
2022-08-25T06:49:19.713Z,96664.50
2022-08-25T06:51:48.001Z,96665.50
2022-08-25T06:54:17.642Z,96661.19
2022-08-25T06:56:45.707Z,96650.72
2022-08-25T06:59:14.027Z,96655.72
2022-08-25T07:01:42.266Z,96661.56
2022-08-25T07:04:13.191Z,96651.09
2022-08-25T07:06:42.820Z,96648.31
2022-08-25T07:09:13.245Z,96644.75
2022-08-25T07:11:45.232Z,96636.59
2022-08-25T07:14:16.841Z,96640.72
2022-08-25T07:16:49.394Z,96637.41
2022-08-25T07:19:21.124Z,96634.63
2022-08-25T07:21:54.144Z,96634.53
2022-08-25T07:24:23.315Z,96632.34
2022-08-25T07:26:53.142Z,96625.88
2022-08-25T07:29:31.879Z,96626.34
2022-08-25T07:32:00.767Z,96626.88
2022-08-25T07:34:52.367Z,96621.44
2022-08-25T07:40:14.867Z,96633.91
2022-08-25T07:42:44.972Z,96631.31
2022-08-25T07:45:15.484Z,96627.94
2022-08-25T07:47:45.476Z,96634.28
2022-08-25T07:50:14.747Z,96631.00
2022-08-25T07:52:43.307Z,96637.19
2022-08-25T07:55:12.033Z,96635.22
2022-08-25T07:57:49.901Z,96630.13
2022-08-25T08:00:27.511Z,96629.31
2022-08-25T08:02:56.066Z,96635.16
2022-08-25T08:05:25.142Z,96632.53
2022-08-25T08:07:53.927Z,96630.66
2022-08-25T08:13:17.775Z,96625.50
2022-08-25T08:15:47.395Z,96621.63
2022-08-25T08:18:16.296Z,96634.81
2022-08-25T08:20:46.001Z,96628.53
2022-08-25T08:23:38.356Z,96634.75
2022-08-25T08:26:06.889Z,96634.34
2022-08-25T08:28:36.354Z,96631.16
2022-08-25T08:31:05.703Z,96627.84
2022-08-25T08:33:40.757Z,96619.53
2022-08-25T08:36:12.536Z,96616.34
2022-08-25T08:38:42.703Z,96614.56
2022-08-25T08:42:09.661Z,96614.97
2022-08-25T08:44:57.069Z,96620.44
2022-08-25T08:47:38.315Z,96611.63
2022-08-25T08:50:23.931Z,96612.28
2022-08-25T08:53:03.488Z,96608.47
2022-08-25T08:55:38.123Z,96622.34
2022-08-25T08:58:10.392Z,96616.50
2022-08-25T09:00:52.074Z,96620.13
2022-08-25T09:03:34.651Z,96618.47
2022-08-25T09:06:08.764Z,96618.59
2022-08-25T09:08:44.492Z,96615.88
2022-08-25T09:11:24.082Z,96607.50
2022-08-25T09:14:13.539Z,96608.53
2022-08-25T09:16:56.144Z,96610.50
2022-08-25T09:20:00.106Z,96610.63
2022-08-25T09:22:46.826Z,96610.78
2022-08-25T09:25:48.799Z,96597.44
2022-08-25T09:28:22.095Z,96597.41
2022-08-25T09:30:59.084Z,96591.28
2022-08-25T09:33:33.660Z,96596.44
2022-08-25T09:36:08.823Z,96586.25
2022-08-25T09:38:38.361Z,96593.56
2022-08-25T09:41:06.966Z,96585.94
2022-08-25T09:43:37.952Z,96585.28
2022-08-25T09:46:13.975Z,96583.84
2022-08-25T09:48:56.620Z,96581.81
2022-08-25T09:51:28.659Z,96580.53
2022-08-25T09:54:03.499Z,96584.91
2022-08-25T09:56:51.237Z,96581.22
2022-08-25T09:59:34.297Z,96582.63
2022-08-25T10:02:06.727Z,96578.31
2022-08-25T10:04:40.010Z,96576.81
2022-08-25T10:07:26.861Z,96579.81
2022-08-25T10:09:59.869Z,96576.63
2022-08-25T10:12:37.624Z,96560.78
2022-08-25T10:15:29.955Z,96565.09
2022-08-25T10:18:21.546Z,96555.56
2022-08-25T10:21:09.369Z,96566.47
2022-08-25T10:23:44.770Z,96562.59
2022-08-25T10:26:30.341Z,96550.94
2022-08-25T10:29:18.193Z,96552.13
2022-08-25T10:31:56.011Z,96551.03
2022-08-25T10:34:38.065Z,96548.91
2022-08-25T10:37:19.714Z,96545.16
2022-08-25T10:39:58.966Z,96545.31
2022-08-25T10:42:37.633Z,96537.03
2022-08-25T10:45:39.255Z,96532.25
2022-08-25T10:48:36.771Z,96523.66
2022-08-25T10:51:24.876Z,96521.91
2022-08-25T10:54:03.631Z,96514.44
2022-08-25T10:56:40.956Z,96512.94
2022-08-25T10:59:31.602Z,96504.06
2022-08-25T11:02:33.404Z,96502.56
2022-08-25T11:05:08.040Z,96499.22
2022-08-25T11:07:42.494Z,96494.13
2022-08-25T11:10:20.053Z,96497.81
2022-08-25T11:12:55.784Z,96494.06
2022-08-25T11:15:29.828Z,96496.44
2022-08-25T11:18:03.992Z,96486.19
2022-08-25T11:20:39.502Z,96498.06
2022-08-25T11:23:15.883Z,96492.94
2022-08-25T11:25:48.886Z,96487.22
2022-08-25T11:28:27.289Z,96491.31
2022-08-25T11:30:59.952Z,96490.50
2022-08-25T11:33:31.678Z,96484.59
2022-08-25T11:36:07.004Z,96480.34
2022-08-25T11:38:53.963Z,96495.72
2022-08-25T11:41:34.123Z,96491.56
2022-08-25T11:44:50.125Z,96482.81
2022-08-25T11:47:48.166Z,96476.81
2022-08-25T11:50:31.575Z,96477.94
2022-08-25T11:53:26.560Z,96471.38
2022-08-25T11:55:58.833Z,96482.56
2022-08-25T11:58:49.697Z,96467.13
2022-08-25T12:02:28.914Z,96469.25
2022-08-25T12:04:57.642Z,96467.31
2022-08-25T12:07:30.961Z,96472.38
2022-08-25T12:10:20.934Z,96459.84
2022-08-25T12:13:21.937Z,96456.63
2022-08-25T12:16:02.416Z,96465.50
2022-08-25T12:18:45.988Z,96471.28
2022-08-25T12:21:33.610Z,96455.69
2022-08-25T12:24:15.300Z,96450.72
2022-08-25T12:26:59.094Z,96450.72
2022-08-25T12:29:34.074Z,96455.28
2022-08-25T12:32:29.247Z,96452.50
2022-08-25T12:35:29.924Z,96445.97
2022-08-25T12:38:06.410Z,96431.88
2022-08-25T12:40:40.365Z,96441.72
2022-08-25T12:43:14.155Z,96441.84
2022-08-25T12:45:50.102Z,96435.34
2022-08-25T12:49:05.318Z,96438.72
2022-08-25T12:51:54.969Z,96440.13
2022-08-25T12:54:48.332Z,96438.09
2022-08-25T12:57:41.070Z,96436.44
2022-08-25T13:00:20.148Z,96437.69
2022-08-25T13:06:41.097Z,96442.19
2022-08-25T13:10:04.205Z,96439.50
2022-08-25T13:12:40.118Z,96436.88
2022-08-25T13:15:14.701Z,96433.56
2022-08-25T13:17:43.765Z,96421.34
2022-08-25T13:20:23.710Z,96423.09
2022-08-25T13:23:00.272Z,96416.91
2022-08-25T13:25:33.223Z,96418.22
2022-08-25T13:28:06.151Z,96420.13
2022-08-25T13:30:39.168Z,96416.16
2022-08-25T13:33:21.943Z,96408.84
2022-08-25T13:36:17.606Z,96407.00
2022-08-25T13:38:50.362Z,96381.16
2022-08-25T13:41:29.602Z,96405.31
2022-08-25T13:44:02.541Z,96404.28
2022-08-25T13:46:31.786Z,96394.28
2022-08-25T13:49:11.189Z,96398.91
2022-08-25T13:51:51.737Z,96395.16
2022-08-25T13:54:31.147Z,96398.19
2022-08-25T13:57:11.314Z,96405.06
2022-08-25T13:59:42.720Z,96398.41
2022-08-25T14:02:19.435Z,96397.00
2022-08-25T14:04:51.234Z,96385.97
2022-08-25T14:07:33.880Z,96394.91
2022-08-25T14:10:08.029Z,96398.78
2022-08-25T14:12:44.847Z,96387.66
2022-08-25T14:15:29.615Z,96391.13
2022-08-25T14:18:07.822Z,96389.88
2022-08-25T14:20:38.879Z,96380.94
2022-08-25T14:23:19.076Z,96384.47
2022-08-25T14:25:51.017Z,96383.03
2022-08-25T14:28:22.835Z,96383.53
2022-08-25T14:30:56.825Z,96377.75
2022-08-25T14:33:29.660Z,96377.75
2022-08-25T14:36:02.593Z,96376.97
2022-08-25T14:38:30.660Z,96375.25
2022-08-25T14:41:00.506Z,96369.19
2022-08-25T14:43:31.727Z,96370.75
2022-08-25T14:46:03.507Z,96364.56
2022-08-25T14:48:40.182Z,96364.56
2022-08-25T14:51:15.313Z,96357.25
2022-08-25T14:53:44.861Z,96354.19
2022-08-25T14:56:14.461Z,96359.00
2022-08-25T14:58:51.140Z,96360.53
2022-08-25T15:01:29.306Z,96352.69
2022-08-25T15:04:04.020Z,96357.91
2022-08-25T15:06:32.816Z,96353.81
2022-08-25T15:09:11.718Z,96348.53
2022-08-25T15:11:45.551Z,96356.34
2022-08-25T15:14:17.506Z,96351.25
2022-08-25T15:16:50.094Z,96345.34
2022-08-25T15:19:22.738Z,96351.25
2022-08-25T15:21:52.382Z,96348.31
2022-08-25T15:24:22.561Z,96345.13
2022-08-25T15:26:55.270Z,96343.38
2022-08-25T15:29:24.305Z,96340.72
2022-08-25T15:31:52.548Z,96342.63
2022-08-25T15:34:20.957Z,96341.06
2022-08-25T15:36:49.155Z,96335.97
2022-08-25T15:39:19.107Z,96331.34
2022-08-25T15:41:49.509Z,96327.97
2022-08-25T15:44:20.147Z,96333.38
2022-08-25T15:46:49.800Z,96324.50
2022-08-25T15:49:20.912Z,96322.75
2022-08-25T15:51:52.805Z,96318.25
2022-08-25T15:54:26.806Z,96318.13
2022-08-25T15:56:56.138Z,96315.53
2022-08-25T15:59:27.197Z,96325.38
2022-08-25T16:01:56.332Z,96324.28
2022-08-25T16:04:27.434Z,96323.59
2022-08-25T16:06:56.221Z,96324.09
2022-08-25T16:09:24.963Z,96320.31
2022-08-25T16:11:56.948Z,96322.81
2022-08-25T16:14:28.033Z,96324.09
2022-08-25T16:16:58.343Z,96330.47
2022-08-25T16:19:27.071Z,96322.50
2022-08-25T16:21:55.117Z,96323.03
2022-08-25T16:24:23.250Z,96320.94
2022-08-25T16:26:51.968Z,96319.81
2022-08-25T16:29:21.083Z,96319.34
2022-08-25T16:31:53.331Z,96319.97
2022-08-25T16:34:24.699Z,96316.16
2022-08-25T16:36:56.596Z,96312.00
2022-08-25T16:39:25.494Z,96302.44
2022-08-25T16:41:53.805Z,96304.06
2022-08-25T16:44:23.105Z,96301.00
2022-08-25T16:46:54.388Z,96305.94
2022-08-25T16:49:24.389Z,96301.97
2022-08-25T16:51:57.296Z,96298.06
2022-08-25T16:54:44.437Z,96293.91
2022-08-25T16:57:12.972Z,96303.47
2022-08-25T16:59:43.754Z,96302.66
2022-08-25T17:02:13.751Z,96299.50
2022-08-25T17:04:42.003Z,96301.22
2022-08-25T17:07:10.578Z,96297.31
2022-08-25T17:09:38.645Z,96300.69
2022-08-25T17:12:09.042Z,96294.63
2022-08-25T17:14:37.374Z,96293.69
2022-08-25T17:17:07.057Z,96290.66
2022-08-25T17:19:37.184Z,96298.78
2022-08-25T17:22:08.033Z,96298.28
2022-08-25T17:24:37.358Z,96301.00
2022-08-25T17:27:09.193Z,96305.03
2022-08-25T17:29:37.791Z,96299.78
2022-08-25T17:32:06.903Z,96299.66
2022-08-25T17:34:37.520Z,96300.78
2022-08-25T17:37:06.766Z,96300.63
2022-08-25T17:39:34.841Z,96296.00
2022-08-25T17:42:03.458Z,96305.91
2022-08-25T17:44:31.597Z,96307.78
2022-08-25T17:46:59.927Z,96311.94
2022-08-25T17:49:28.457Z,96311.81
2022-08-25T17:51:58.144Z,96307.19
2022-08-25T17:54:26.302Z,96309.25
2022-08-25T17:56:56.072Z,96304.50
2022-08-25T17:59:24.371Z,96308.31
2022-08-25T18:01:55.488Z,96309.59
2022-08-25T18:04:24.099Z,96301.81
2022-08-25T18:06:59.161Z,96304.84
2022-08-25T18:09:28.437Z,96310.44
2022-08-25T18:11:56.587Z,96311.38
2022-08-25T18:14:25.573Z,96314.91
2022-08-25T18:16:55.137Z,96316.97
2022-08-25T18:19:23.479Z,96315.56
2022-08-25T18:21:51.873Z,96317.31
2022-08-25T18:24:23.674Z,96323.22
2022-08-25T18:26:52.036Z,96325.16
2022-08-25T18:29:20.684Z,96325.59
2022-08-25T18:31:49.023Z,96324.97
2022-08-25T18:34:17.251Z,96330.69
2022-08-25T18:36:46.951Z,96329.44
2022-08-25T18:39:34.838Z,96329.91
2022-08-25T18:42:06.338Z,96325.44
2022-08-25T18:44:36.147Z,96340.53
2022-08-25T18:47:07.688Z,96325.56
2022-08-25T18:49:37.064Z,96337.47
2022-08-25T18:52:06.689Z,96333.81
2022-08-25T18:54:36.353Z,96339.84
2022-08-25T18:57:08.239Z,96331.41
2022-08-25T18:59:37.532Z,96335.66
2022-08-25T19:02:06.558Z,96345.50
2022-08-25T19:04:34.969Z,96344.69
2022-08-25T19:07:03.332Z,96343.25
2022-08-25T19:09:32.800Z,96343.88
2022-08-25T19:12:01.374Z,96348.09
2022-08-25T19:14:30.850Z,96349.69
2022-08-25T19:16:59.127Z,96349.66
2022-08-25T19:19:27.753Z,96348.81
2022-08-25T19:21:55.943Z,96351.22
2022-08-25T19:24:24.035Z,96353.56
2022-08-25T19:26:54.645Z,96354.69
2022-08-25T19:29:24.387Z,96353.91
2022-08-25T19:31:54.321Z,96348.81
2022-08-25T19:34:28.306Z,96349.00
2022-08-25T19:37:01.444Z,96340.69
2022-08-25T19:39:30.601Z,96344.94
2022-08-25T19:41:59.258Z,96348.06
2022-08-25T19:44:28.078Z,96351.19
2022-08-25T19:46:58.756Z,96343.56
2022-08-25T19:49:33.405Z,96347.19
2022-08-25T19:52:04.689Z,96343.91
2022-08-25T19:54:35.982Z,96341.63
2022-08-25T19:57:06.614Z,96353.66
2022-08-25T19:59:42.843Z,96354.56
2022-08-25T20:02:17.814Z,96353.88
2022-08-25T20:04:49.570Z,96355.91
2022-08-25T20:07:21.186Z,96359.63
2022-08-25T20:09:50.011Z,96359.94
2022-08-25T20:12:20.527Z,96356.19
2022-08-25T20:14:49.373Z,96360.66
2022-08-25T20:17:24.652Z,96353.81
2022-08-25T20:19:55.922Z,96359.00
2022-08-25T20:22:26.819Z,96354.34
2022-08-25T20:24:57.875Z,96361.09
2022-08-25T20:27:32.026Z,96365.00
2022-08-25T20:30:02.596Z,96364.81
2022-08-25T20:32:34.874Z,96369.53
2022-08-25T20:35:09.360Z,96367.81
2022-08-25T20:37:41.876Z,96368.53
2022-08-25T20:40:12.379Z,96364.56
2022-08-25T20:42:41.238Z,96365.31
2022-08-25T20:45:13.519Z,96365.63
2022-08-25T20:47:44.302Z,96367.53
2022-08-25T20:50:12.881Z,96372.19
2022-08-25T20:52:43.873Z,96371.25
2022-08-25T20:55:12.502Z,96364.09
2022-08-25T20:57:40.929Z,96376.25
2022-08-25T21:00:11.334Z,96376.84
2022-08-25T21:02:39.575Z,96370.97
2022-08-25T21:05:09.481Z,96369.66
2022-08-25T21:07:37.596Z,96375.34
2022-08-25T21:10:10.502Z,96378.25
2022-08-25T21:12:42.738Z,96376.13
2022-08-25T21:15:12.324Z,96372.66
2022-08-25T21:17:40.517Z,96372.97
2022-08-25T21:20:11.654Z,96385.09
2022-08-25T21:22:39.906Z,96376.84
2022-08-25T21:25:10.188Z,96379.00
2022-08-25T21:27:38.260Z,96379.41
2022-08-25T21:30:08.336Z,96386.16
2022-08-25T21:32:37.453Z,96388.06
2022-08-25T21:35:07.948Z,96380.38
2022-08-25T21:37:37.596Z,96382.97
2022-08-25T21:40:08.706Z,96382.16
2022-08-25T21:42:36.976Z,96378.44
2022-08-25T21:45:11.139Z,96386.72
2022-08-25T21:47:42.304Z,96382.50
2022-08-25T21:50:11.932Z,96384.38
2022-08-25T21:52:42.418Z,96380.91
2022-08-25T21:55:16.032Z,96386.88
2022-08-25T21:57:44.628Z,96380.47
2022-08-25T22:00:14.778Z,96379.19
2022-08-25T22:02:45.852Z,96379.47
2022-08-25T22:05:14.330Z,96376.06
2022-08-25T22:07:45.027Z,96379.03
2022-08-25T22:10:16.768Z,96375.06
2022-08-25T22:12:46.290Z,96371.28
2022-08-25T22:15:17.829Z,96385.81
2022-08-25T22:17:48.211Z,96381.00
2022-08-25T22:20:18.052Z,96381.59
2022-08-25T22:22:48.162Z,96378.22
2022-08-25T22:25:16.418Z,96383.63
2022-08-25T22:27:44.545Z,96377.50
2022-08-25T22:30:14.337Z,96379.38
2022-08-25T22:32:42.710Z,96374.38
2022-08-25T22:35:13.853Z,96375.53
2022-08-25T22:37:42.848Z,96374.66
2022-08-25T22:40:13.884Z,96378.34
2022-08-25T22:42:47.396Z,96365.75
2022-08-25T22:45:16.151Z,96371.97
2022-08-25T22:47:45.145Z,96373.84
2022-08-25T22:50:13.593Z,96372.25
2022-08-25T22:52:42.376Z,96360.81
2022-08-25T22:55:13.009Z,96373.44
2022-08-25T22:57:41.939Z,96370.59
2022-08-25T23:00:14.941Z,96374.97
2022-08-25T23:02:45.505Z,96368.63
2022-08-25T23:05:15.994Z,96360.94
2022-08-25T23:07:44.193Z,96359.19
2022-08-25T23:10:14.629Z,96356.00
2022-08-25T23:12:44.042Z,96358.75
2022-08-25T23:15:14.088Z,96351.19
2022-08-25T23:17:42.286Z,96353.16
2022-08-25T23:20:25.772Z,96352.94
2022-08-25T23:22:54.481Z,96354.09
2022-08-25T23:25:23.941Z,96354.03
2022-08-25T23:27:52.113Z,96355.97
2022-08-25T23:30:20.508Z,96357.28
2022-08-25T23:32:49.763Z,96351.91
2022-08-25T23:35:18.431Z,96363.44
2022-08-25T23:37:48.249Z,96354.31
2022-08-25T23:40:19.238Z,96357.28
2022-08-25T23:42:49.151Z,96363.72
2022-08-25T23:45:17.509Z,96361.16
2022-08-25T23:47:45.538Z,96356.38
2022-08-25T23:50:14.067Z,96359.56
2022-08-25T23:52:42.144Z,96351.81
2022-08-25T23:55:10.877Z,96357.41
2022-08-25T23:57:39.050Z,96346.16
